Terminal Aerodrome Forecast
Issued by NWS Billings, MT

Home | Current Version | Previous Version | Graphics & Text | Print | Product List | Glossary On
Versions: 1 2 3 4 5 6 7 8 9 10 11 12 13 14 15 16 17 18 19 20 21 22 23 24 25 26 27 28 29 30 31
000
FTUS45 KBYZ 260535
TAFMLS
TAF
KMLS 260535Z 2606/2706 VRB05KT P6SM FEW020 OVC040
     FM260900 VRB05KT P6SM VCFG SCT005 BKN025 OVC040
     FM261600 03010KT P6SM SCT020 BKN060 OVC100
     FM262100 03010KT P6SM VCSH FEW020 OVC040
     FM262300 02012KT 4SM -RA BR FEW006 OVC012
     FM270300 02012KT 2SM -RA BR OVC006=

USA.gov is the U.S. government's official web portal to all federal, state and local government web resources and services.